sensor_id;sensor_type;location;lat;lon;timestamp;temperature;humidity
6357;DHT22;3211;53.452;-2.264;2023-06-14T00:00:36;19.90;1.00
6357;DHT22;3211;53.452;-2.264;2023-06-14T00:03:19;19.80;1.00
6357;DHT22;3211;53.452;-2.264;2023-06-14T00:06:02;19.80;1.00
6357;DHT22;3211;53.452;-2.264;2023-06-14T00:08:44;19.80;1.00
6357;DHT22;3211;53.452;-2.264;2023-06-14T00:11:26;19.80;1.00
6357;DHT22;3211;53.452;-2.264;2023-06-14T00:14:08;19.80;99.90
6357;DHT22;3211;53.452;-2.264;2023-06-14T00:16:52;19.70;1.00
6357;DHT22;3211;53.452;-2.264;2023-06-14T00:19:39;19.60;1.00
6357;DHT22;3211;53.452;-2.264;2023-06-14T00:22:20;19.50;1.00
6357;DHT22;3211;53.452;-2.264;2023-06-14T00:25:05;19.40;1.00
6357;DHT22;3211;53.452;-2.264;2023-06-14T00:27:48;19.30;1.00
6357;DHT22;3211;53.452;-2.264;2023-06-14T00:30:30;19.30;1.00
6357;DHT22;3211;53.452;-2.264;2023-06-14T00:33:14;19.20;1.00
6357;DHT22;3211;53.452;-2.264;2023-06-14T00:35:56;19.10;1.00
6357;DHT22;3211;53.452;-2.264;2023-06-14T00:38:38;19.00;1.00
6357;DHT22;3211;53.452;-2.264;2023-06-14T00:41:20;18.90;1.00
6357;DHT22;3211;53.452;-2.264;2023-06-14T00:44:02;18.90;1.00
6357;DHT22;3211;53.452;-2.264;2023-06-14T00:46:45;18.80;1.00
6357;DHT22;3211;53.452;-2.264;2023-06-14T00:49:29;18.80;1.00
6357;DHT22;3211;53.452;-2.264;2023-06-14T00:52:11;18.70;1.00
6357;DHT22;3211;53.452;-2.264;2023-06-14T00:54:55;18.60;1.00
6357;DHT22;3211;53.452;-2.264;2023-06-14T00:57:37;18.50;1.00
6357;DHT22;3211;53.452;-2.264;2023-06-14T01:00:20;18.50;1.00
6357;DHT22;3211;53.452;-2.264;2023-06-14T01:03:02;18.40;1.00
6357;DHT22;3211;53.452;-2.264;2023-06-14T01:05:46;18.30;1.00
6357;DHT22;3211;53.452;-2.264;2023-06-14T01:08:37;18.30;1.00
6357;DHT22;3211;53.452;-2.264;2023-06-14T01:11:28;18.10;1.00
6357;DHT22;3211;53.452;-2.264;2023-06-14T01:14:14;18.10;1.00
6357;DHT22;3211;53.452;-2.264;2023-06-14T01:16:58;18.00;1.00
6357;DHT22;3211;53.452;-2.264;2023-06-14T01:19:41;18.00;1.00
6357;DHT22;3211;53.452;-2.264;2023-06-14T01:22:26;17.90;1.00
6357;DHT22;3211;53.452;-2.264;2023-06-14T01:25:09;17.90;1.00
6357;DHT22;3211;53.452;-2.264;2023-06-14T01:27:55;17.80;1.00
6357;DHT22;3211;53.452;-2.264;2023-06-14T01:30:40;17.70;1.00
6357;DHT22;3211;53.452;-2.264;2023-06-14T01:33:27;17.70;1.00
6357;DHT22;3211;53.452;-2.264;2023-06-14T01:36:10;17.70;1.00
6357;DHT22;3211;53.452;-2.264;2023-06-14T01:38:52;17.70;1.00
6357;DHT22;3211;53.452;-2.264;2023-06-14T01:41:38;17.80;1.00
6357;DHT22;3211;53.452;-2.264;2023-06-14T01:44:21;17.80;1.00
6357;DHT22;3211;53.452;-2.264;2023-06-14T01:47:04;17.90;1.00
6357;DHT22;3211;53.452;-2.264;2023-06-14T01:49:47;17.90;1.00
6357;DHT22;3211;53.452;-2.264;2023-06-14T01:52:29;17.90;1.00
6357;DHT22;3211;53.452;-2.264;2023-06-14T01:55:11;17.80;1.00
6357;DHT22;3211;53.452;-2.264;2023-06-14T01:57:54;17.80;1.00
6357;DHT22;3211;53.452;-2.264;2023-06-14T02:00:36;17.70;1.00
6357;DHT22;3211;53.452;-2.264;2023-06-14T02:03:18;17.70;1.00
6357;DHT22;3211;53.452;-2.264;2023-06-14T02:06:00;17.70;1.00
6357;DHT22;3211;53.452;-2.264;2023-06-14T02:08:42;17.70;1.00
6357;DHT22;3211;53.452;-2.264;2023-06-14T02:11:24;17.80;1.00
6357;DHT22;3211;53.452;-2.264;2023-06-14T02:14:07;17.80;1.00
6357;DHT22;3211;53.452;-2.264;2023-06-14T02:16:51;17.70;1.00
6357;DHT22;3211;53.452;-2.264;2023-06-14T02:19:33;17.50;1.00
6357;DHT22;3211;53.452;-2.264;2023-06-14T02:22:16;17.60;1.00
6357;DHT22;3211;53.452;-2.264;2023-06-14T02:24:58;17.60;1.00
6357;DHT22;3211;53.452;-2.264;2023-06-14T02:27:40;17.50;1.00
6357;DHT22;3211;53.452;-2.264;2023-06-14T02:30:23;17.50;1.00
6357;DHT22;3211;53.452;-2.264;2023-06-14T02:33:05;17.50;1.00
6357;DHT22;3211;53.452;-2.264;2023-06-14T02:35:47;17.30;1.00
6357;DHT22;3211;53.452;-2.264;2023-06-14T02:38:30;17.30;1.00
6357;DHT22;3211;53.452;-2.264;2023-06-14T02:41:12;17.30;1.00
6357;DHT22;3211;53.452;-2.264;2023-06-14T02:43:54;17.30;1.00
6357;DHT22;3211;53.452;-2.264;2023-06-14T02:46:38;17.10;1.00
6357;DHT22;3211;53.452;-2.264;2023-06-14T02:49:20;17.00;1.00
6357;DHT22;3211;53.452;-2.264;2023-06-14T02:52:02;16.90;1.00
6357;DHT22;3211;53.452;-2.264;2023-06-14T02:54:44;17.00;1.00
6357;DHT22;3211;53.452;-2.264;2023-06-14T02:57:27;17.20;1.00
6357;DHT22;3211;53.452;-2.264;2023-06-14T03:00:10;17.30;1.00
6357;DHT22;3211;53.452;-2.264;2023-06-14T03:02:55;17.40;1.00
6357;DHT22;3211;53.452;-2.264;2023-06-14T03:05:36;17.40;1.00
6357;DHT22;3211;53.452;-2.264;2023-06-14T03:08:21;17.40;1.00
6357;DHT22;3211;53.452;-2.264;2023-06-14T03:11:07;17.30;1.00
6357;DHT22;3211;53.452;-2.264;2023-06-14T03:13:49;17.20;1.00
6357;DHT22;3211;53.452;-2.264;2023-06-14T03:16:31;17.20;1.00
6357;DHT22;3211;53.452;-2.264;2023-06-14T03:19:14;17.20;1.00
6357;DHT22;3211;53.452;-2.264;2023-06-14T03:21:57;17.30;1.00
6357;DHT22;3211;53.452;-2.264;2023-06-14T03:24:39;17.30;1.00
6357;DHT22;3211;53.452;-2.264;2023-06-14T03:27:21;17.30;1.00
6357;DHT22;3211;53.452;-2.264;2023-06-14T03:30:04;17.30;1.00
6357;DHT22;3211;53.452;-2.264;2023-06-14T03:32:47;17.20;1.00
6357;DHT22;3211;53.452;-2.264;2023-06-14T03:35:30;17.20;1.00
6357;DHT22;3211;53.452;-2.264;2023-06-14T03:38:12;17.00;1.00
6357;DHT22;3211;53.452;-2.264;2023-06-14T03:40:54;17.00;1.00
6357;DHT22;3211;53.452;-2.264;2023-06-14T03:43:36;17.00;1.00
6357;DHT22;3211;53.452;-2.264;2023-06-14T03:46:18;17.00;1.00
6357;DHT22;3211;53.452;-2.264;2023-06-14T03:49:00;17.00;1.00
6357;DHT22;3211;53.452;-2.264;2023-06-14T03:51:44;16.90;1.00
6357;DHT22;3211;53.452;-2.264;2023-06-14T03:54:31;16.90;1.00
6357;DHT22;3211;53.452;-2.264;2023-06-14T03:57:14;16.80;1.00
6357;DHT22;3211;53.452;-2.264;2023-06-14T03:59:56;16.80;1.00
6357;DHT22;3211;53.452;-2.264;2023-06-14T04:02:38;16.80;1.00
6357;DHT22;3211;53.452;-2.264;2023-06-14T04:05:20;16.70;1.00
6357;DHT22;3211;53.452;-2.264;2023-06-14T04:08:04;16.70;1.00
6357;DHT22;3211;53.452;-2.264;2023-06-14T04:10:49;16.60;1.00
6357;DHT22;3211;53.452;-2.264;2023-06-14T04:13:31;16.60;1.00
6357;DHT22;3211;53.452;-2.264;2023-06-14T04:16:15;16.60;1.00
6357;DHT22;3211;53.452;-2.264;2023-06-14T04:18:57;16.60;1.00
6357;DHT22;3211;53.452;-2.264;2023-06-14T04:21:39;16.50;1.00
6357;DHT22;3211;53.452;-2.264;2023-06-14T04:24:22;16.50;1.00
6357;DHT22;3211;53.452;-2.264;2023-06-14T04:27:12;16.50;2.80
6357;DHT22;3211;53.452;-2.264;2023-06-14T04:29:55;16.50;3.40
6357;DHT22;3211;53.452;-2.264;2023-06-14T04:32:40;16.50;4.40
6357;DHT22;3211;53.452;-2.264;2023-06-14T04:35:23;16.40;12.10
6357;DHT22;3211;53.452;-2.264;2023-06-14T04:38:06;16.30;25.30
6357;DHT22;3211;53.452;-2.264;2023-06-14T04:40:51;16.20;26.60
6357;DHT22;3211;53.452;-2.264;2023-06-14T04:43:33;16.30;36.70
6357;DHT22;3211;53.452;-2.264;2023-06-14T04:46:18;16.50;18.30
6357;DHT22;3211;53.452;-2.264;2023-06-14T04:49:01;16.40;21.10
6357;DHT22;3211;53.452;-2.264;2023-06-14T04:51:45;16.40;29.60
6357;DHT22;3211;53.452;-2.264;2023-06-14T04:54:27;16.40;28.30
6357;DHT22;3211;53.452;-2.264;2023-06-14T04:57:13;16.40;35.00
6357;DHT22;3211;53.452;-2.264;2023-06-14T04:59:57;16.40;28.70
6357;DHT22;3211;53.452;-2.264;2023-06-14T05:02:41;16.50;29.40
6357;DHT22;3211;53.452;-2.264;2023-06-14T05:05:23;16.50;26.90
6357;DHT22;3211;53.452;-2.264;2023-06-14T05:08:05;16.40;34.10
6357;DHT22;3211;53.452;-2.264;2023-06-14T05:10:47;16.40;32.90
6357;DHT22;3211;53.452;-2.264;2023-06-14T05:13:31;16.50;12.30
6357;DHT22;3211;53.452;-2.264;2023-06-14T05:16:13;16.60;2.10
6357;DHT22;3211;53.452;-2.264;2023-06-14T05:18:56;16.60;1.00
6357;DHT22;3211;53.452;-2.264;2023-06-14T05:21:38;16.70;1.00
6357;DHT22;3211;53.452;-2.264;2023-06-14T05:24:20;16.70;1.00
6357;DHT22;3211;53.452;-2.264;2023-06-14T05:27:03;16.80;1.00
6357;DHT22;3211;53.452;-2.264;2023-06-14T05:29:47;16.90;1.00
6357;DHT22;3211;53.452;-2.264;2023-06-14T05:32:29;16.90;1.00
6357;DHT22;3211;53.452;-2.264;2023-06-14T05:35:11;17.00;1.00
6357;DHT22;3211;53.452;-2.264;2023-06-14T05:37:53;16.90;1.00
6357;DHT22;3211;53.452;-2.264;2023-06-14T05:40:35;16.90;1.00
6357;DHT22;3211;53.452;-2.264;2023-06-14T05:43:17;16.90;1.00
6357;DHT22;3211;53.452;-2.264;2023-06-14T05:46:01;16.90;1.00
6357;DHT22;3211;53.452;-2.264;2023-06-14T05:48:42;17.00;1.00
6357;DHT22;3211;53.452;-2.264;2023-06-14T05:51:24;17.10;1.00
6357;DHT22;3211;53.452;-2.264;2023-06-14T05:54:07;17.10;1.00
6357;DHT22;3211;53.452;-2.264;2023-06-14T05:56:49;17.10;1.00
6357;DHT22;3211;53.452;-2.264;2023-06-14T05:59:30;17.20;1.00
6357;DHT22;3211;53.452;-2.264;2023-06-14T06:02:14;17.20;1.00
6357;DHT22;3211;53.452;-2.264;2023-06-14T06:04:56;17.20;1.00
6357;DHT22;3211;53.452;-2.264;2023-06-14T06:07:38;17.20;1.00
6357;DHT22;3211;53.452;-2.264;2023-06-14T06:10:21;17.20;1.00
6357;DHT22;3211;53.452;-2.264;2023-06-14T06:13:03;17.20;1.00
6357;DHT22;3211;53.452;-2.264;2023-06-14T06:15:45;17.30;1.00
6357;DHT22;3211;53.452;-2.264;2023-06-14T06:18:28;17.30;1.00
6357;DHT22;3211;53.452;-2.264;2023-06-14T06:21:10;17.40;1.00
6357;DHT22;3211;53.452;-2.264;2023-06-14T06:23:52;17.40;1.00
6357;DHT22;3211;53.452;-2.264;2023-06-14T06:26:35;17.50;1.00
6357;DHT22;3211;53.452;-2.264;2023-06-14T06:29:17;17.50;1.00
6357;DHT22;3211;53.452;-2.264;2023-06-14T06:31:59;17.60;1.00
6357;DHT22;3211;53.452;-2.264;2023-06-14T06:34:43;17.70;1.00
6357;DHT22;3211;53.452;-2.264;2023-06-14T06:37:25;17.80;1.00
6357;DHT22;3211;53.452;-2.264;2023-06-14T06:40:08;17.90;1.00
6357;DHT22;3211;53.452;-2.264;2023-06-14T06:42:50;17.80;1.00
6357;DHT22;3211;53.452;-2.264;2023-06-14T06:45:32;17.90;1.00
6357;DHT22;3211;53.452;-2.264;2023-06-14T06:48:14;17.90;1.00
6357;DHT22;3211;53.452;-2.264;2023-06-14T06:50:58;17.90;1.00
6357;DHT22;3211;53.452;-2.264;2023-06-14T06:53:42;18.00;1.00
6357;DHT22;3211;53.452;-2.264;2023-06-14T06:56:24;18.00;1.00
6357;DHT22;3211;53.452;-2.264;2023-06-14T06:59:07;18.00;1.00
6357;DHT22;3211;53.452;-2.264;2023-06-14T07:01:49;18.00;1.00
6357;DHT22;3211;53.452;-2.264;2023-06-14T07:04:31;18.00;1.00
6357;DHT22;3211;53.452;-2.264;2023-06-14T07:07:14;18.20;1.00
6357;DHT22;3211;53.452;-2.264;2023-06-14T07:09:56;18.40;1.00
6357;DHT22;3211;53.452;-2.264;2023-06-14T07:12:39;18.30;1.00
6357;DHT22;3211;53.452;-2.264;2023-06-14T07:15:21;18.30;1.00
6357;DHT22;3211;53.452;-2.264;2023-06-14T07:18:03;18.40;1.00
6357;DHT22;3211;53.452;-2.264;2023-06-14T07:20:47;18.40;1.00
6357;DHT22;3211;53.452;-2.264;2023-06-14T07:23:30;18.50;1.00
6357;DHT22;3211;53.452;-2.264;2023-06-14T07:26:12;18.60;1.00
6357;DHT22;3211;53.452;-2.264;2023-06-14T07:28:54;18.70;1.00
6357;DHT22;3211;53.452;-2.264;2023-06-14T07:31:36;18.70;1.00
6357;DHT22;3211;53.452;-2.264;2023-06-14T07:34:18;18.90;1.00
6357;DHT22;3211;53.452;-2.264;2023-06-14T07:37:00;18.90;1.00
6357;DHT22;3211;53.452;-2.264;2023-06-14T07:39:44;19.00;1.00
6357;DHT22;3211;53.452;-2.264;2023-06-14T07:42:26;19.10;1.00
6357;DHT22;3211;53.452;-2.264;2023-06-14T07:45:08;19.20;1.00
6357;DHT22;3211;53.452;-2.264;2023-06-14T07:47:50;19.30;1.00
6357;DHT22;3211;53.452;-2.264;2023-06-14T07:50:33;19.40;1.00
6357;DHT22;3211;53.452;-2.264;2023-06-14T07:53:14;19.40;1.00
6357;DHT22;3211;53.452;-2.264;2023-06-14T07:55:58;19.40;1.00
6357;DHT22;3211;53.452;-2.264;2023-06-14T07:58:40;19.50;1.00
6357;DHT22;3211;53.452;-2.264;2023-06-14T08:01:22;19.70;1.00
6357;DHT22;3211;53.452;-2.264;2023-06-14T08:04:05;19.80;1.00
6357;DHT22;3211;53.452;-2.264;2023-06-14T08:06:47;19.80;1.00
6357;DHT22;3211;53.452;-2.264;2023-06-14T08:09:29;19.90;1.00
6357;DHT22;3211;53.452;-2.264;2023-06-14T08:12:13;20.00;1.00
6357;DHT22;3211;53.452;-2.264;2023-06-14T08:14:55;20.00;1.00
6357;DHT22;3211;53.452;-2.264;2023-06-14T08:17:37;20.20;1.00
6357;DHT22;3211;53.452;-2.264;2023-06-14T08:20:19;20.20;1.00
6357;DHT22;3211;53.452;-2.264;2023-06-14T08:23:02;20.30;1.00
6357;DHT22;3211;53.452;-2.264;2023-06-14T08:25:44;20.50;1.00
6357;DHT22;3211;53.452;-2.264;2023-06-14T08:28:28;20.60;1.00
6357;DHT22;3211;53.452;-2.264;2023-06-14T08:31:10;20.70;1.00
6357;DHT22;3211;53.452;-2.264;2023-06-14T08:33:52;20.70;1.00
6357;DHT22;3211;53.452;-2.264;2023-06-14T08:36:35;20.90;1.00
6357;DHT22;3211;53.452;-2.264;2023-06-14T08:39:17;21.00;1.00
6357;DHT22;3211;53.452;-2.264;2023-06-14T08:42:01;21.10;1.00
6357;DHT22;3211;53.452;-2.264;2023-06-14T08:44:45;21.10;1.00
6357;DHT22;3211;53.452;-2.264;2023-06-14T08:47:27;21.30;1.00
6357;DHT22;3211;53.452;-2.264;2023-06-14T08:50:10;21.30;1.00
6357;DHT22;3211;53.452;-2.264;2023-06-14T08:52:54;21.40;1.00
6357;DHT22;3211;53.452;-2.264;2023-06-14T08:55:38;21.40;1.00
6357;DHT22;3211;53.452;-2.264;2023-06-14T08:58:21;21.50;1.00
6357;DHT22;3211;53.452;-2.264;2023-06-14T09:01:06;21.50;1.00
6357;DHT22;3211;53.452;-2.264;2023-06-14T09:03:49;21.60;1.00
6357;DHT22;3211;53.452;-2.264;2023-06-14T09:06:31;21.70;1.00
6357;DHT22;3211;53.452;-2.264;2023-06-14T09:09:13;21.70;1.00
6357;DHT22;3211;53.452;-2.264;2023-06-14T09:11:55;21.80;1.00
6357;DHT22;3211;53.452;-2.264;2023-06-14T09:14:37;21.80;1.00
6357;DHT22;3211;53.452;-2.264;2023-06-14T09:17:23;21.80;1.00
6357;DHT22;3211;53.452;-2.264;2023-06-14T09:20:06;21.90;1.00
6357;DHT22;3211;53.452;-2.264;2023-06-14T09:22:50;22.00;1.00
6357;DHT22;3211;53.452;-2.264;2023-06-14T09:25:32;22.00;1.00
6357;DHT22;3211;53.452;-2.264;2023-06-14T09:28:14;22.10;1.00
6357;DHT22;3211;53.452;-2.264;2023-06-14T09:30:56;22.20;1.00
6357;DHT22;3211;53.452;-2.264;2023-06-14T09:33:41;22.20;1.00
6357;DHT22;3211;53.452;-2.264;2023-06-14T09:36:28;22.30;1.00
6357;DHT22;3211;53.452;-2.264;2023-06-14T09:39:10;22.40;1.00
6357;DHT22;3211;53.452;-2.264;2023-06-14T09:41:52;22.50;1.00
6357;DHT22;3211;53.452;-2.264;2023-06-14T09:44:34;22.60;1.00
6357;DHT22;3211;53.452;-2.264;2023-06-14T09:47:16;22.60;1.00
6357;DHT22;3211;53.452;-2.264;2023-06-14T09:49:59;22.70;1.00
6357;DHT22;3211;53.452;-2.264;2023-06-14T09:52:43;22.70;1.00
6357;DHT22;3211;53.452;-2.264;2023-06-14T09:55:27;22.70;1.00
6357;DHT22;3211;53.452;-2.264;2023-06-14T09:58:12;22.90;1.00
6357;DHT22;3211;53.452;-2.264;2023-06-14T10:00:56;22.90;1.00
6357;DHT22;3211;53.452;-2.264;2023-06-14T10:03:38;22.90;1.00
6357;DHT22;3211;53.452;-2.264;2023-06-14T10:06:23;23.10;1.00
6357;DHT22;3211;53.452;-2.264;2023-06-14T10:09:09;23.20;1.00
6357;DHT22;3211;53.452;-2.264;2023-06-14T10:11:51;23.30;1.00
6357;DHT22;3211;53.452;-2.264;2023-06-14T10:14:33;23.40;1.00
6357;DHT22;3211;53.452;-2.264;2023-06-14T10:17:23;23.40;1.00
6357;DHT22;3211;53.452;-2.264;2023-06-14T10:20:21;23.70;1.00
6357;DHT22;3211;53.452;-2.264;2023-06-14T10:23:10;23.90;1.00
6357;DHT22;3211;53.452;-2.264;2023-06-14T10:25:56;23.90;1.00
6357;DHT22;3211;53.452;-2.264;2023-06-14T10:28:38;23.90;1.00
6357;DHT22;3211;53.452;-2.264;2023-06-14T10:31:20;24.20;1.00
6357;DHT22;3211;53.452;-2.264;2023-06-14T10:34:02;24.30;1.00
6357;DHT22;3211;53.452;-2.264;2023-06-14T10:36:44;24.10;1.00
6357;DHT22;3211;53.452;-2.264;2023-06-14T10:39:27;24.40;1.00
6357;DHT22;3211;53.452;-2.264;2023-06-14T10:42:10;24.60;1.00
6357;DHT22;3211;53.452;-2.264;2023-06-14T10:44:53;24.70;1.00
6357;DHT22;3211;53.452;-2.264;2023-06-14T10:47:36;24.80;1.00
6357;DHT22;3211;53.452;-2.264;2023-06-14T10:50:27;24.70;1.00
6357;DHT22;3211;53.452;-2.264;2023-06-14T10:53:22;24.90;1.00
6357;DHT22;3211;53.452;-2.264;2023-06-14T10:56:08;25.00;1.00
6357;DHT22;3211;53.452;-2.264;2023-06-14T10:58:51;25.10;99.90
6357;DHT22;3211;53.452;-2.264;2023-06-14T11:01:36;25.20;1.00
6357;DHT22;3211;53.452;-2.264;2023-06-14T11:04:20;25.30;99.90
6357;DHT22;3211;53.452;-2.264;2023-06-14T11:07:17;25.20;99.90
6357;DHT22;3211;53.452;-2.264;2023-06-14T11:10:13;25.30;99.90
6357;DHT22;3211;53.452;-2.264;2023-06-14T11:13:01;25.10;99.90
6357;DHT22;3211;53.452;-2.264;2023-06-14T11:15:45;25.00;99.90
6357;DHT22;3211;53.452;-2.264;2023-06-14T11:18:28;25.30;99.90
6357;DHT22;3211;53.452;-2.264;2023-06-14T11:21:10;25.60;99.90
6357;DHT22;3211;53.452;-2.264;2023-06-14T11:23:53;25.90;99.90
6357;DHT22;3211;53.452;-2.264;2023-06-14T11:26:37;26.00;99.90
6357;DHT22;3211;53.452;-2.264;2023-06-14T11:29:21;25.70;99.90
6357;DHT22;3211;53.452;-2.264;2023-06-14T11:32:06;25.80;99.90
6357;DHT22;3211;53.452;-2.264;2023-06-14T11:34:52;25.80;99.90
6357;DHT22;3211;53.452;-2.264;2023-06-14T11:37:36;26.30;99.90
6357;DHT22;3211;53.452;-2.264;2023-06-14T11:40:19;26.30;99.90
6357;DHT22;3211;53.452;-2.264;2023-06-14T11:43:01;26.50;99.90
6357;DHT22;3211;53.452;-2.264;2023-06-14T11:45:48;26.30;99.90
6357;DHT22;3211;53.452;-2.264;2023-06-14T11:48:37;26.50;99.90
6357;DHT22;3211;53.452;-2.264;2023-06-14T11:51:19;26.70;99.90
6357;DHT22;3211;53.452;-2.264;2023-06-14T11:54:02;26.70;99.90
6357;DHT22;3211;53.452;-2.264;2023-06-14T11:56:45;26.70;99.90
6357;DHT22;3211;53.452;-2.264;2023-06-14T11:59:27;26.30;99.90
6357;DHT22;3211;53.452;-2.264;2023-06-14T12:02:14;26.30;99.90
6357;DHT22;3211;53.452;-2.264;2023-06-14T12:04:56;26.80;99.90
6357;DHT22;3211;53.452;-2.264;2023-06-14T12:07:38;27.10;99.90
6357;DHT22;3211;53.452;-2.264;2023-06-14T12:10:22;27.00;99.90
6357;DHT22;3211;53.452;-2.264;2023-06-14T12:13:04;27.00;99.90
6357;DHT22;3211;53.452;-2.264;2023-06-14T12:15:54;27.20;99.90
6357;DHT22;3211;53.452;-2.264;2023-06-14T12:18:39;27.60;99.90
6357;DHT22;3211;53.452;-2.264;2023-06-14T12:21:23;27.60;99.90
6357;DHT22;3211;53.452;-2.264;2023-06-14T12:24:06;27.70;99.90
6357;DHT22;3211;53.452;-2.264;2023-06-14T12:26:49;27.30;99.90
6357;DHT22;3211;53.452;-2.264;2023-06-14T12:29:33;27.60;99.90
6357;DHT22;3211;53.452;-2.264;2023-06-14T12:32:15;27.80;99.90
6357;DHT22;3211;53.452;-2.264;2023-06-14T12:34:58;27.90;99.90
6357;DHT22;3211;53.452;-2.264;2023-06-14T12:37:40;28.10;99.90
6357;DHT22;3211;53.452;-2.264;2023-06-14T12:40:22;27.90;99.90
6357;DHT22;3211;53.452;-2.264;2023-06-14T12:43:04;28.10;99.90
6357;DHT22;3211;53.452;-2.264;2023-06-14T12:45:46;28.20;99.90
6357;DHT22;3211;53.452;-2.264;2023-06-14T12:48:28;28.30;99.90
6357;DHT22;3211;53.452;-2.264;2023-06-14T12:51:13;28.20;99.90
6357;DHT22;3211;53.452;-2.264;2023-06-14T12:53:55;28.10;99.90
6357;DHT22;3211;53.452;-2.264;2023-06-14T12:56:37;28.30;99.90
6357;DHT22;3211;53.452;-2.264;2023-06-14T12:59:18;28.10;99.90
6357;DHT22;3211;53.452;-2.264;2023-06-14T13:02:13;27.30;99.90
6357;DHT22;3211;53.452;-2.264;2023-06-14T13:04:56;27.90;99.90
6357;DHT22;3211;53.452;-2.264;2023-06-14T13:07:40;28.40;99.90
6357;DHT22;3211;53.452;-2.264;2023-06-14T13:10:22;28.50;99.90
6357;DHT22;3211;53.452;-2.264;2023-06-14T13:13:04;28.30;99.90
6357;DHT22;3211;53.452;-2.264;2023-06-14T13:15:48;28.50;99.90
6357;DHT22;3211;53.452;-2.264;2023-06-14T13:18:30;28.40;99.90
6357;DHT22;3211;53.452;-2.264;2023-06-14T13:21:12;28.40;99.90
6357;DHT22;3211;53.452;-2.264;2023-06-14T13:23:55;28.80;99.90
6357;DHT22;3211;53.452;-2.264;2023-06-14T13:26:37;28.90;99.90
6357;DHT22;3211;53.452;-2.264;2023-06-14T13:29:19;28.90;99.90
6357;DHT22;3211;53.452;-2.264;2023-06-14T13:32:01;29.00;99.90
6357;DHT22;3211;53.452;-2.264;2023-06-14T13:34:43;29.60;99.90
6357;DHT22;3211;53.452;-2.264;2023-06-14T13:37:25;29.20;99.90
6357;DHT22;3211;53.452;-2.264;2023-06-14T13:40:09;29.70;99.90
6357;DHT22;3211;53.452;-2.264;2023-06-14T13:42:51;29.50;99.90
6357;DHT22;3211;53.452;-2.264;2023-06-14T13:45:33;29.60;99.90
6357;DHT22;3211;53.452;-2.264;2023-06-14T13:48:15;29.70;99.90
6357;DHT22;3211;53.452;-2.264;2023-06-14T13:50:59;29.70;99.90
6357;DHT22;3211;53.452;-2.264;2023-06-14T13:53:41;29.40;99.90
6357;DHT22;3211;53.452;-2.264;2023-06-14T13:56:25;29.70;99.90
6357;DHT22;3211;53.452;-2.264;2023-06-14T13:59:07;29.20;99.90
6357;DHT22;3211;53.452;-2.264;2023-06-14T14:01:50;29.10;99.90
6357;DHT22;3211;53.452;-2.264;2023-06-14T14:04:33;29.80;99.90
6357;DHT22;3211;53.452;-2.264;2023-06-14T14:07:15;29.90;99.90
6357;DHT22;3211;53.452;-2.264;2023-06-14T14:09:57;30.10;99.90
6357;DHT22;3211;53.452;-2.264;2023-06-14T14:12:40;30.10;99.90
6357;DHT22;3211;53.452;-2.264;2023-06-14T14:15:22;30.40;99.90
6357;DHT22;3211;53.452;-2.264;2023-06-14T14:18:04;30.40;99.90
6357;DHT22;3211;53.452;-2.264;2023-06-14T14:20:46;30.40;99.90
6357;DHT22;3211;53.452;-2.264;2023-06-14T14:23:28;30.30;99.90
6357;DHT22;3211;53.452;-2.264;2023-06-14T14:26:10;30.50;99.90
6357;DHT22;3211;53.452;-2.264;2023-06-14T14:28:53;31.00;99.90
6357;DHT22;3211;53.452;-2.264;2023-06-14T14:31:35;31.30;99.90
6357;DHT22;3211;53.452;-2.264;2023-06-14T14:34:17;32.40;99.90
6357;DHT22;3211;53.452;-2.264;2023-06-14T14:36:59;32.90;99.90
6357;DHT22;3211;53.452;-2.264;2023-06-14T14:39:41;32.80;99.90
6357;DHT22;3211;53.452;-2.264;2023-06-14T14:42:23;33.80;99.90
6357;DHT22;3211;53.452;-2.264;2023-06-14T14:45:09;35.00;99.90
6357;DHT22;3211;53.452;-2.264;2023-06-14T14:47:51;35.80;99.90
6357;DHT22;3211;53.452;-2.264;2023-06-14T14:50:33;35.00;99.90
6357;DHT22;3211;53.452;-2.264;2023-06-14T14:53:15;34.50;99.90
6357;DHT22;3211;53.452;-2.264;2023-06-14T14:55:58;36.00;99.90
6357;DHT22;3211;53.452;-2.264;2023-06-14T14:58:40;36.50;99.90
6357;DHT22;3211;53.452;-2.264;2023-06-14T15:01:23;35.70;99.90
6357;DHT22;3211;53.452;-2.264;2023-06-14T15:04:05;35.40;99.90
6357;DHT22;3211;53.452;-2.264;2023-06-14T15:06:47;36.30;99.90
6357;DHT22;3211;53.452;-2.264;2023-06-14T15:09:29;36.90;99.90
6357;DHT22;3211;53.452;-2.264;2023-06-14T15:12:11;37.00;99.90
6357;DHT22;3211;53.452;-2.264;2023-06-14T15:14:53;37.50;99.90
6357;DHT22;3211;53.452;-2.264;2023-06-14T15:17:36;37.60;99.90
6357;DHT22;3211;53.452;-2.264;2023-06-14T15:20:18;37.10;99.90
6357;DHT22;3211;53.452;-2.264;2023-06-14T15:23:00;36.80;99.90
6357;DHT22;3211;53.452;-2.264;2023-06-14T15:25:42;36.10;99.90
6357;DHT22;3211;53.452;-2.264;2023-06-14T15:28:24;37.30;99.90
6357;DHT22;3211;53.452;-2.264;2023-06-14T15:31:08;38.30;99.90
6357;DHT22;3211;53.452;-2.264;2023-06-14T15:33:52;38.10;99.90
6357;DHT22;3211;53.452;-2.264;2023-06-14T15:36:34;37.60;99.90
6357;DHT22;3211;53.452;-2.264;2023-06-14T15:39:15;36.00;99.90
6357;DHT22;3211;53.452;-2.264;2023-06-14T15:41:57;36.70;99.90
6357;DHT22;3211;53.452;-2.264;2023-06-14T15:44:39;37.70;99.90
6357;DHT22;3211;53.452;-2.264;2023-06-14T15:47:22;38.50;99.90
6357;DHT22;3211;53.452;-2.264;2023-06-14T15:50:07;38.70;99.90
6357;DHT22;3211;53.452;-2.264;2023-06-14T15:52:49;38.40;99.90
6357;DHT22;3211;53.452;-2.264;2023-06-14T15:55:31;38.70;99.90
6357;DHT22;3211;53.452;-2.264;2023-06-14T15:58:13;38.30;99.90
6357;DHT22;3211;53.452;-2.264;2023-06-14T16:00:55;36.90;99.90
6357;DHT22;3211;53.452;-2.264;2023-06-14T16:03:37;37.80;99.90
6357;DHT22;3211;53.452;-2.264;2023-06-14T16:06:20;38.50;99.90
6357;DHT22;3211;53.452;-2.264;2023-06-14T16:09:02;38.60;99.90
6357;DHT22;3211;53.452;-2.264;2023-06-14T16:11:44;38.10;99.90
6357;DHT22;3211;53.452;-2.264;2023-06-14T16:14:26;38.40;99.90
6357;DHT22;3211;53.452;-2.264;2023-06-14T16:17:08;38.70;99.90
6357;DHT22;3211;53.452;-2.264;2023-06-14T16:19:50;38.40;99.90
6357;DHT22;3211;53.452;-2.264;2023-06-14T16:22:34;37.70;99.90
6357;DHT22;3211;53.452;-2.264;2023-06-14T16:25:16;38.30;99.90
6357;DHT22;3211;53.452;-2.264;2023-06-14T16:27:58;38.20;99.90
6357;DHT22;3211;53.452;-2.264;2023-06-14T16:30:40;37.50;99.90
6357;DHT22;3211;53.452;-2.264;2023-06-14T16:33:22;36.40;99.90
6357;DHT22;3211;53.452;-2.264;2023-06-14T16:36:04;34.80;99.90
6357;DHT22;3211;53.452;-2.264;2023-06-14T16:38:48;33.40;99.90
6357;DHT22;3211;53.452;-2.264;2023-06-14T16:41:30;31.80;99.90
6357;DHT22;3211;53.452;-2.264;2023-06-14T16:44:12;30.70;99.90
6357;DHT22;3211;53.452;-2.264;2023-06-14T16:46:55;30.90;99.90
6357;DHT22;3211;53.452;-2.264;2023-06-14T16:49:40;30.90;99.90
6357;DHT22;3211;53.452;-2.264;2023-06-14T16:52:22;30.60;99.90
6357;DHT22;3211;53.452;-2.264;2023-06-14T16:55:06;30.60;99.90
6357;DHT22;3211;53.452;-2.264;2023-06-14T16:57:49;30.80;99.90
6357;DHT22;3211;53.452;-2.264;2023-06-14T17:00:31;30.20;99.90
6357;DHT22;3211;53.452;-2.264;2023-06-14T17:03:13;30.10;99.90
6357;DHT22;3211;53.452;-2.264;2023-06-14T17:05:55;29.90;99.90
6357;DHT22;3211;53.452;-2.264;2023-06-14T17:08:37;29.70;99.90
6357;DHT22;3211;53.452;-2.264;2023-06-14T17:11:21;29.50;99.90
6357;DHT22;3211;53.452;-2.264;2023-06-14T17:14:03;28.90;99.90
6357;DHT22;3211;53.452;-2.264;2023-06-14T17:16:46;29.00;99.90
6357;DHT22;3211;53.452;-2.264;2023-06-14T17:19:28;29.30;99.90
6357;DHT22;3211;53.452;-2.264;2023-06-14T17:22:10;28.90;99.90
6357;DHT22;3211;53.452;-2.264;2023-06-14T17:24:52;28.90;99.90
6357;DHT22;3211;53.452;-2.264;2023-06-14T17:27:36;28.70;99.90
6357;DHT22;3211;53.452;-2.264;2023-06-14T17:30:17;28.40;99.90
6357;DHT22;3211;53.452;-2.264;2023-06-14T17:32:59;28.40;99.90
6357;DHT22;3211;53.452;-2.264;2023-06-14T17:35:41;28.20;99.90